Time;durP1;ratioP1;P1;durP2;ratioP2;P2;SDS_P1;SDS_P2;PMS_P1;PMS_P2;Temp;Humidity;BMP_temperature;BMP_pressure;BME280_temperature;BME280_humidity;BME280_pressure;Samples;Min_cycle;Max_cycle;Signal;HPM_P1;HPM_P2
2021/09/04 00:03:32;;;;;;;24.10;15.82;;;;;;;14.02;100.00;101885.59;10462017;28;20504;-60
2021/09/04 00:08:34;;;;;;;25.80;16.00;;;;;;;13.86;100.00;101884.72;10461552;28;20486;-61
2021/09/04 00:13:36;;;;;;;29.92;16.65;;;;;;;13.88;100.00;101870.53;10460742;28;20052;-60
2021/09/04 00:18:39;;;;;;;24.73;16.10;;;;;;;13.70;100.00;101875.03;10461219;28;20053;-60
2021/09/04 00:23:41;;;;;;;35.38;16.83;;;;;;;13.41;100.00;101871.28;10461674;28;20049;-60
2021/09/04 00:28:43;;;;;;;30.45;17.58;;;;;;;13.44;100.00;101872.91;10460914;28;20057;-62
2021/09/04 00:33:46;;;;;;;25.88;16.08;;;;;;;13.79;100.00;101862.31;10461577;28;20052;-62
2021/09/04 00:38:48;;;;;;;24.77;16.58;;;;;;;13.65;100.00;101866.53;10460704;28;20075;-60
2021/09/04 00:43:50;;;;;;;26.33;17.02;;;;;;;13.74;100.00;101868.66;10459789;28;20049;-61
2021/09/04 00:48:53;;;;;;;25.70;15.80;;;;;;;13.62;100.00;101871.94;10460013;28;20049;-61
2021/09/04 00:53:55;;;;;;;27.92;15.73;;;;;;;13.64;100.00;101875.34;10460247;28;20049;-61
2021/09/04 00:59:05;;;;;;;26.45;15.52;;;;;;;13.86;100.00;101866.31;10458788;28;20049;-61
2021/09/04 01:04:07;;;;;;;32.30;18.73;;;;;;;13.35;100.00;101861.94;10459560;28;20128;-60
2021/09/04 01:09:09;;;;;;;27.52;15.48;;;;;;;13.58;100.00;101857.25;10459406;28;20049;-61
2021/09/04 01:14:12;;;;;;;28.35;16.90;;;;;;;13.65;100.00;101849.88;10459521;28;20051;-61
2021/09/04 01:19:14;;;;;;;31.63;17.75;;;;;;;13.53;100.00;101849.63;10458757;28;20485;-60
2021/09/04 01:24:16;;;;;;;28.80;17.05;;;;;;;13.57;100.00;101851.13;10458734;28;20044;-61
2021/09/04 01:29:19;;;;;;;30.92;16.77;;;;;;;13.75;100.00;101851.06;10458461;28;20523;-60
2021/09/04 01:34:21;;;;;;;32.17;18.10;;;;;;;13.60;100.00;101851.91;10459005;28;20057;-61
2021/09/04 01:39:23;;;;;;;26.95;17.33;;;;;;;13.79;100.00;101851.78;10458200;28;20098;-61
2021/09/04 01:44:26;;;;;;;25.77;16.52;;;;;;;13.80;100.00;101846.44;10458696;28;20041;-62
2021/09/04 01:49:28;;;;;;;27.35;16.77;;;;;;;13.58;100.00;101838.81;10456725;28;20053;-61
2021/09/04 01:54:31;;;;;;;24.52;16.17;;;;;;;13.75;100.00;101833.50;10457570;28;20056;-60
2021/09/04 01:59:35;;;;;;;28.38;18.23;;;;;;;13.47;100.00;101843.81;10456852;28;20044;-60
2021/09/04 02:04:37;;;;;;;30.70;19.15;;;;;;;13.34;100.00;101839.19;10457550;28;20052;-61
2021/09/04 02:09:39;;;;;;;28.73;18.00;;;;;;;13.34;100.00;101831.31;10455715;28;20052;-61
2021/09/04 02:14:42;;;;;;;35.67;20.08;;;;;;;13.11;100.00;101834.25;10457329;28;20041;-61
2021/09/04 02:19:45;;;;;;;29.10;17.60;;;;;;;13.39;100.00;101817.91;10457123;28;20393;-61
2021/09/04 02:24:47;;;;;;;31.48;17.92;;;;;;;13.57;100.00;101816.09;10456954;28;20052;-61
2021/09/04 02:29:50;;;;;;;33.42;17.55;;;;;;;13.30;100.00;101808.69;10456735;28;20060;-60
2021/09/04 02:34:52;;;;;;;33.75;19.30;;;;;;;13.11;100.00;101818.47;10456833;28;20044;-62
2021/09/04 02:39:54;;;;;;;31.77;19.02;;;;;;;13.10;100.00;101819.41;10456392;28;20045;-61
2021/09/04 02:44:57;;;;;;;35.92;20.08;;;;;;;13.10;100.00;101815.00;10457147;28;20098;-60
2021/09/04 02:49:59;;;;;;;35.10;18.73;;;;;;;13.31;100.00;101817.44;10455045;28;20048;-61
2021/09/04 02:55:01;;;;;;;49.63;26.55;;;;;;;13.35;100.00;101822.50;10456201;28;20052;-61
2021/09/04 03:00:05;;;;;;;42.97;24.45;;;;;;;13.51;100.00;101819.88;10455740;28;20045;-61
2021/09/04 03:05:08;;;;;;;41.40;23.92;;;;;;;13.19;100.00;101824.19;10456026;28;20051;-60
2021/09/04 03:10:11;;;;;;;33.50;21.83;;;;;;;13.33;100.00;101816.47;10462458;28;20060;-61
2021/09/04 03:15:13;;;;;;;40.60;24.08;;;;;;;13.41;100.00;101823.94;10464012;28;20045;-61
2021/09/04 03:20:15;;;;;;;40.08;23.98;;;;;;;13.12;100.00;101828.06;10463483;28;20045;-61
2021/09/04 03:25:18;;;;;;;41.47;23.25;;;;;;;13.14;100.00;101821.78;10463388;28;20477;-60
2021/09/04 03:30:20;;;;;;;44.85;25.17;;;;;;;13.02;100.00;101812.75;10462051;28;20059;-62
2021/09/04 03:35:22;;;;;;;49.85;24.58;;;;;;;12.73;100.00;101814.25;10463600;28;20059;-60
2021/09/04 03:40:25;;;;;;;40.50;23.50;;;;;;;13.06;100.00;101823.13;10462754;28;20049;-60
2021/09/04 03:45:27;;;;;;;46.65;25.90;;;;;;;13.07;100.00;101824.84;10463364;28;20182;-61
2021/09/04 03:50:30;;;;;;;52.22;28.05;;;;;;;13.00;100.00;101827.75;10462359;28;20471;-61
2021/09/04 03:55:32;;;;;;;45.45;23.88;;;;;;;13.14;100.00;101837.56;10462468;28;20049;-61
2021/09/04 04:00:34;;;;;;;55.15;25.75;;;;;;;12.91;100.00;101843.16;10462335;28;20049;-60
2021/09/04 04:05:37;;;;;;;42.97;23.13;;;;;;;13.22;100.00;101833.72;10462169;28;20045;-61
2021/09/04 04:10:40;;;;;;;64.80;23.08;;;;;;;13.05;100.00;101829.31;10461879;28;20045;-61
2021/09/04 04:15:43;;;;;;;43.03;22.40;;;;;;;13.19;100.00;101835.53;10461806;28;20060;-61
2021/09/04 04:20:45;;;;;;;39.55;22.55;;;;;;;13.29;100.00;101837.72;10460109;28;20480;-61
2021/09/04 04:25:48;;;;;;;56.65;24.65;;;;;;;12.95;100.00;101840.28;10460962;28;20508;-61
2021/09/04 04:30:50;;;;;;;50.92;25.42;;;;;;;12.99;100.00;101833.97;10460943;28;20057;-60
2021/09/04 04:35:52;;;;;;;44.22;24.15;;;;;;;13.04;100.00;101848.66;10460699;28;20044;-60
2021/09/04 04:40:55;;;;;;;44.35;24.98;;;;;;;13.33;100.00;101839.28;10460306;28;20413;-60
2021/09/04 04:45:57;;;;;;;48.22;25.90;;;;;;;12.99;100.00;101852.38;10460203;28;20045;-60
2021/09/04 04:51:00;;;;;;;48.17;26.75;;;;;;;12.88;100.00;101851.19;10460194;28;20382;-61
2021/09/04 04:56:02;;;;;;;67.20;25.02;;;;;;;13.06;100.00;101855.50;10459945;28;20053;-61
2021/09/04 05:01:05;;;;;;;36.05;22.13;;;;;;;13.04;100.00;101861.78;10460049;28;20076;-62
2021/09/04 05:06:07;;;;;;;51.83;24.05;;;;;;;13.01;100.00;101861.03;10459646;28;20049;-63
2021/09/04 05:11:10;;;;;;;42.42;21.23;;;;;;;13.41;100.00;101862.56;10459690;28;20067;-61
2021/09/04 05:16:14;;;;;;;59.30;24.98;;;;;;;13.20;100.00;101855.66;10459291;28;20053;-62
2021/09/04 05:21:17;;;;;;;40.15;20.15;;;;;;;13.00;100.00;101866.34;10459229;28;20049;-61
2021/09/04 05:26:19;;;;;;;35.78;20.42;;;;;;;12.69;100.00;101864.41;10459137;28;20136;-61
2021/09/04 05:31:21;;;;;;;42.60;20.90;;;;;;;12.92;100.00;101865.88;10458366;28;20056;-61
2021/09/04 05:36:24;;;;;;;43.03;23.00;;;;;;;13.06;100.00;101866.03;10458767;28;20102;-62
2021/09/04 05:41:28;;;;;;;43.50;23.25;;;;;;;12.83;100.00;101868.03;10458168;28;20080;-63
2021/09/04 05:46:31;;;;;;;52.70;23.98;;;;;;;13.02;100.00;101865.34;10458648;28;20052;-61
2021/09/04 05:51:33;;;;;;;57.95;25.27;;;;;;;12.93;100.00;101867.59;10457965;28;20147;-60
2021/09/04 05:56:35;;;;;;;66.47;28.20;;;;;;;12.59;100.00;101869.25;10457513;28;20485;-61
2021/09/04 06:01:37;;;;;;;67.57;29.63;;;;;;;12.80;100.00;101870.81;10457507;28;20045;-61
2021/09/04 06:06:40;;;;;;;44.28;22.15;;;;;;;13.07;100.00;101872.16;10457362;28;20060;-61
2021/09/04 06:11:43;;;;;;;45.50;21.70;;;;;;;12.84;100.00;101868.88;10457325;28;20053;-61
2021/09/04 06:16:45;;;;;;;41.88;20.83;;;;;;;12.69;100.00;101865.22;10456075;28;20045;-61
2021/09/04 06:21:47;;;;;;;37.92;20.55;;;;;;;12.78;100.00;101874.47;10456680;28;20409;-62
2021/09/04 06:26:50;;;;;;;35.58;21.00;;;;;;;12.87;100.00;101860.00;10455098;28;20533;-61
2021/09/04 06:31:53;;;;;;;49.30;22.17;;;;;;;12.80;100.00;101864.72;10456512;28;20053;-61
2021/09/04 06:36:55;;;;;;;57.63;25.73;;;;;;;12.88;100.00;101866.94;10456946;28;20049;-61
2021/09/04 06:41:58;;;;;;;56.05;23.63;;;;;;;12.89;100.00;101868.66;10459846;28;20056;-61
2021/09/04 06:47:00;;;;;;;53.13;27.65;;;;;;;13.05;100.00;101869.59;10470249;28;20080;-62
2021/09/04 06:52:03;;;;;;;49.45;24.10;;;;;;;13.14;100.00;101866.47;10470286;28;20052;-60
2021/09/04 06:57:05;;;;;;;39.92;22.13;;;;;;;13.22;100.00;101866.09;10470629;28;20048;-61
2021/09/04 07:02:08;;;;;;;64.63;29.55;;;;;;;13.00;100.00;101875.09;10468632;28;20512;-61
2021/09/04 07:07:10;;;;;;;48.58;25.25;;;;;;;13.37;100.00;101883.75;10469786;28;20084;-63
2021/09/04 07:12:12;;;;;;;39.40;22.42;;;;;;;13.28;100.00;101884.22;10469677;28;20412;-61
2021/09/04 07:17:15;;;;;;;41.00;22.42;;;;;;;13.51;100.00;101882.19;10469312;28;20493;-62
2021/09/04 07:22:17;;;;;;;42.53;23.10;;;;;;;13.40;100.00;101880.13;10469342;28;20068;-62
2021/09/04 07:27:19;;;;;;;38.08;20.60;;;;;;;13.61;100.00;101870.25;10469446;28;20055;-62
2021/09/04 07:32:22;;;;;;;45.45;25.95;;;;;;;13.35;100.00;101880.34;10469734;28;20049;-62
2021/09/04 07:37:24;;;;;;;48.42;26.77;;;;;;;13.68;100.00;101890.03;10468997;28;20413;-63
2021/09/04 07:42:27;;;;;;;49.95;27.08;;;;;;;13.78;100.00;101892.19;10469196;28;20052;-64
2021/09/04 07:47:29;;;;;;;37.53;20.85;;;;;;;14.21;100.00;101898.59;10468147;28;20049;-61
2021/09/04 07:52:31;;;;;;;38.20;25.15;;;;;;;13.85;100.00;101904.94;10468462;28;20049;-61
2021/09/04 07:57:34;;;;;;;33.83;24.08;;;;;;;13.59;100.00;101910.72;10462531;28;20048;-64
2021/09/04 08:02:36;;;;;;;33.70;23.15;;;;;;;14.31;100.00;101909.47;10462384;28;20056;-63
2021/09/04 08:07:39;;;;;;;33.08;20.85;;;;;;;14.31;100.00;101910.31;10462030;28;20049;-61
2021/09/04 08:12:41;;;;;;;31.08;18.75;;;;;;;14.26;100.00;101903.63;10461891;28;20056;-63
2021/09/04 08:17:44;;;;;;;26.98;15.65;;;;;;;14.37;100.00;101910.91;10461605;28;20055;-63
2021/09/04 08:22:46;;;;;;;27.02;16.67;;;;;;;14.41;100.00;101905.41;10460232;28;20052;-62
2021/09/04 08:27:48;;;;;;;21.05;15.02;;;;;;;14.84;100.00;101897.72;10459724;28;20048;-61
2021/09/04 08:32:50;;;;;;;20.35;14.82;;;;;;;14.58;100.00;101903.59;10461357;28;20052;-62
2021/09/04 08:37:53;;;;;;;24.85;16.52;;;;;;;14.60;100.00;101907.88;10460948;28;20049;-62
2021/09/04 08:42:55;;;;;;;26.92;16.17;;;;;;;14.29;100.00;101893.75;10460713;28;20045;-62
2021/09/04 08:48:00;;;;;;;25.10;15.85;;;;;;;14.45;100.00;101906.91;10442860;28;20045;-62
2021/09/04 08:53:03;;;;;;;27.45;17.20;;;;;;;14.36;100.00;101902.16;10460365;28;20045;-62
2021/09/04 08:58:05;;;;;;;22.20;14.80;;;;;;;14.68;100.00;101907.44;10459201;28;20045;-61
2021/09/04 09:03:20;;;;;;;21.00;14.23;;;;;;;15.37;100.00;101919.22;10459848;28;20053;-63
2021/09/04 09:08:24;;;;;;;26.67;17.15;;;;;;;15.41;100.00;101923.38;10458433;28;20053;-62
2021/09/04 09:13:27;;;;;;;24.13;15.98;;;;;;;15.52;100.00;101920.09;10459431;28;20045;-61
2021/09/04 09:18:30;;;;;;;21.60;15.85;;;;;;;15.45;100.00;101925.81;10459317;28;20041;-61
2021/09/04 09:23:33;;;;;;;23.05;15.77;;;;;;;15.31;100.00;101916.94;10458947;28;20485;-62
2021/09/04 09:28:36;;;;;;;20.40;15.60;;;;;;;15.64;100.00;101917.66;10457183;28;20452;-62
2021/09/04 09:33:38;;;;;;;27.15;18.95;;;;;;;15.55;100.00;101908.47;10459096;28;20049;-62
2021/09/04 09:38:43;;;;;;;18.58;15.25;;;;;;;16.18;97.69;101903.78;10458200;28;20045;-63
2021/09/04 09:43:45;;;;;;;23.83;16.02;;;;;;;15.85;98.73;101913.72;10458966;28;20045;-61
2021/09/04 09:48:48;;;;;;;23.75;17.05;;;;;;;16.85;95.57;101898.59;10458039;28;20048;-62
2021/09/04 09:53:50;;;;;;;21.17;15.13;;;;;;;16.72;93.16;101906.44;10457930;28;20091;-62
2021/09/04 09:58:52;;;;;;;22.00;16.42;;;;;;;16.71;94.18;101892.38;10456288;28;20041;-62
2021/09/04 10:03:56;;;;;;;20.23;15.95;;;;;;;16.47;93.74;101892.16;10456421;28;20048;-62
2021/09/04 10:08:58;;;;;;;25.60;16.67;;;;;;;16.49;92.72;101900.00;10457452;28;20044;-62
2021/09/04 10:14:00;;;;;;;21.63;15.27;;;;;;;17.50;87.27;101892.41;10455712;28;20505;-61
2021/09/04 10:19:03;;;;;;;21.08;16.60;;;;;;;17.39;89.49;101898.44;10454625;28;20516;-61
2021/09/04 10:24:07;;;;;;;26.90;15.50;;;;;;;18.12;87.62;101886.31;10455704;28;20440;-62
2021/09/04 10:29:14;;;;;;;22.63;16.90;;;;;;;19.57;78.99;101883.44;10456850;28;20489;-61
2021/09/04 10:34:35;;;;;;;26.55;17.48;;;;;;;20.07;74.70;101883.03;10455478;28;20412;-62
2021/09/04 10:39:52;;;;;;;18.60;16.13;;;;;;;21.48;67.92;101885.56;10456547;28;20485;-61
2021/09/04 10:45:11;;;;;;;22.60;17.17;;;;;;;20.38;71.00;101876.06;10456961;28;20045;-62
2021/09/04 10:50:25;;;;;;;23.75;17.48;;;;;;;20.88;69.09;101872.88;10456512;28;20049;-63
2021/09/04 10:55:30;;;;;;;24.35;17.80;;;;;;;20.50;70.59;101868.06;10456367;28;20059;-62
2021/09/04 11:00:40;;;;;;;25.13;17.95;;;;;;;20.76;69.36;101856.13;10455976;28;20401;-62
2021/09/04 11:05:56;;;;;;;23.83;16.60;;;;;;;24.01;61.34;101838.38;10455234;28;20049;-63
2021/09/04 11:11:17;;;;;;;20.50;15.23;;;;;;;23.94;59.03;101840.81;10455978;28;20133;-63
2021/09/04 11:16:45;;;;;;;17.90;14.93;;;;;;;23.61;60.99;101848.41;10456203;28;20049;-63
2021/09/04 11:22:06;;;;;;;20.90;16.75;;;;;;;23.54;60.37;101840.13;10452717;28;20053;-63
2021/09/04 11:27:17;;;;;;;23.45;16.10;;;;;;;23.65;60.70;101838.25;10455461;28;20063;-63
2021/09/04 11:32:21;;;;;;;19.23;16.55;;;;;;;23.71;59.26;101843.00;10463157;28;20520;-63
2021/09/04 11:37:40;;;;;;;17.70;15.45;;;;;;;23.51;59.61;101845.78;10462288;28;20045;-63
2021/09/04 11:42:47;;;;;;;20.80;15.43;;;;;;;24.99;60.50;101836.53;10462254;28;20058;-62
2021/09/04 11:47:51;;;;;;;20.55;17.75;;;;;;;23.49;55.98;101830.88;10462673;28;20056;-62
2021/09/04 11:52:54;;;;;;;19.55;16.02;;;;;;;23.57;60.13;101828.31;10463234;28;20053;-63
2021/09/04 11:57:59;;;;;;;18.27;15.07;;;;;;;25.93;53.29;101810.63;10462303;28;20489;-62
2021/09/04 12:03:10;;;;;;;22.98;17.95;;;;;;;24.19;56.31;101816.94;10461389;28;20055;-62
2021/09/04 12:08:15;;;;;;;16.70;14.45;;;;;;;26.25;53.59;101818.94;10462187;28;20045;-62
2021/09/04 12:13:19;;;;;;;19.08;14.05;;;;;;;25.87;55.92;101818.50;10460755;28;20060;-62
2021/09/04 12:18:33;;;;;;;22.40;17.00;;;;;;;24.52;58.69;101827.97;10460376;28;20045;-61
2021/09/04 12:23:44;;;;;;;20.55;15.70;;;;;;;25.63;55.68;101819.28;10461371;28;20481;-62
2021/09/04 12:28:47;;;;;;;23.80;16.80;;;;;;;22.98;62.67;101807.13;10461218;28;20084;-62
2021/09/04 12:33:52;;;;;;;17.17;14.45;;;;;;;26.93;51.97;101814.19;10459883;28;20052;-62
2021/09/04 12:38:57;;;;;;;21.95;16.58;;;;;;;24.83;56.37;101812.28;10460282;28;20120;-61
2021/09/04 12:44:00;;;;;;;18.20;15.18;;;;;;;24.34;54.20;101809.22;10460131;28;20055;-64
2021/09/04 12:49:28;;;;;;;16.50;12.52;;;;;;;26.93;55.98;101800.75;10460164;28;20075;-62
2021/09/04 12:54:41;;;;;;;16.27;13.40;;;;;;;26.57;53.29;101801.97;10460515;28;20044;-62
2021/09/04 13:00:21;;;;;;;14.85;13.25;;;;;;;26.06;51.79;101799.44;10460019;28;20107;-62
2021/09/04 13:05:23;;;;;;;16.60;14.15;;;;;;;25.83;50.67;101798.38;10447560;28;20045;-62
2021/09/04 13:10:32;;;;;;;16.35;13.18;;;;;;;27.10;51.07;101796.16;10459852;28;20059;-63
2021/09/04 13:15:36;;;;;;;17.13;13.38;;;;;;;26.29;53.95;101796.97;10459490;28;20041;-62
2021/09/04 13:20:38;;;;;;;15.48;10.77;;;;;;;28.44;46.49;101786.97;10458632;28;20071;-62
2021/09/04 13:25:41;;;;;;;13.43;11.80;;;;;;;26.39;52.33;101777.97;10458878;28;20516;-62
2021/09/04 13:30:43;;;;;;;15.18;11.73;;;;;;;27.58;48.80;101772.81;10458952;28;20055;-62
2021/09/04 13:35:45;;;;;;;13.75;12.32;;;;;;;25.83;54.81;101768.88;10458810;28;20049;-62
2021/09/04 13:40:48;;;;;;;19.50;12.10;;;;;;;27.23;50.87;101766.88;10458209;28;20041;-62
2021/09/04 13:45:50;;;;;;;16.25;13.27;;;;;;;26.02;46.69;101768.56;10458065;28;20490;-61
2021/09/04 13:50:53;;;;;;;10.98;9.93;;;;;;;27.92;47.50;101760.81;10457835;28;20194;-61
2021/09/04 13:55:55;;;;;;;11.90;10.65;;;;;;;28.99;46.66;101765.25;10457656;28;20371;-62
2021/09/04 14:00:57;;;;;;;18.08;12.57;;;;;;;27.29;48.38;101768.09;10458120;28;20059;-61
2021/09/04 14:06:00;;;;;;;14.82;10.25;;;;;;;29.18;44.88;101750.38;10457460;28;20053;-62
2021/09/04 14:11:03;;;;;;;15.70;11.18;;;;;;;29.31;41.07;101757.78;10457135;28;20492;-61
2021/09/04 14:16:06;;;;;;;15.07;10.43;;;;;;;26.27;52.47;101756.00;10457076;28;20060;-61
2021/09/04 14:21:08;;;;;;;11.88;8.68;;;;;;;28.80;45.27;101748.63;10456826;28;20418;-60
2021/09/04 14:26:11;;;;;;;12.23;10.40;;;;;;;27.18;48.42;101737.84;10456972;28;20061;-62
2021/09/04 14:31:13;;;;;;;12.77;8.45;;;;;;;29.91;43.68;101736.84;10456753;28;20057;-62
2021/09/04 14:36:15;;;;;;;10.82;9.75;;;;;;;25.37;54.58;101726.38;10456384;28;20053;-61
2021/09/04 14:41:18;;;;;;;14.27;9.40;;;;;;;27.75;50.21;101733.19;10456329;28;20052;-61
2021/09/04 14:46:20;;;;;;;13.90;10.90;;;;;;;24.10;54.42;101725.91;10456380;28;20053;-62
2021/09/04 14:51:24;;;;;;;14.60;9.88;;;;;;;27.82;45.98;101723.38;10455210;28;20079;-61
2021/09/04 14:56:27;;;;;;;12.73;9.07;;;;;;;26.49;49.26;101719.59;10456287;28;20049;-60
2021/09/04 15:01:30;;;;;;;13.60;9.77;;;;;;;28.20;44.58;101723.44;10456130;28;20084;-61
2021/09/04 15:06:33;;;;;;;11.60;9.95;;;;;;;27.79;48.14;101711.13;10463266;28;20405;-60
2021/09/04 15:11:35;;;;;;;13.63;9.30;;;;;;;27.38;50.57;101703.31;10464252;28;20056;-61
2021/09/04 15:16:38;;;;;;;10.93;8.77;;;;;;;27.59;46.95;101712.63;10464031;28;20053;-59
2021/09/04 15:21:40;;;;;;;18.90;11.82;;;;;;;26.79;46.83;101706.44;10462423;28;20045;-59
2021/09/04 15:26:44;;;;;;;35.53;16.70;;;;;;;27.69;47.46;101704.28;10462847;28;20136;-59
2021/09/04 15:31:47;;;;;;;15.38;9.80;;;;;;;26.62;48.41;101710.16;10463291;28;20400;-59
2021/09/04 15:36:49;;;;;;;10.70;7.90;;;;;;;26.18;51.70;101703.34;10463340;28;20041;-59
2021/09/04 15:41:51;;;;;;;16.42;10.63;;;;;;;25.08;52.80;101708.81;10462957;28;20053;-60
2021/09/04 15:46:54;;;;;;;15.10;9.98;;;;;;;23.18;58.99;101710.94;10462757;28;20397;-60
2021/09/04 15:51:57;;;;;;;11.73;9.35;;;;;;;23.08;60.21;101720.81;10462644;28;20053;-60
2021/09/04 15:56:59;;;;;;;14.60;8.95;;;;;;;23.71;59.06;101715.50;10462667;28;20135;-59
2021/09/04 16:02:02;;;;;;;11.63;9.45;;;;;;;23.16;59.41;101716.41;10462358;28;20072;-60
2021/09/04 16:07:04;;;;;;;15.82;9.40;;;;;;;23.21;62.58;101715.16;10462021;28;20128;-60
2021/09/04 16:12:07;;;;;;;13.82;9.93;;;;;;;22.93;62.20;101715.94;10461876;28;20052;-60
2021/09/04 16:17:09;;;;;;;13.48;9.27;;;;;;;22.32;65.83;101717.22;10460161;28;20049;-60
2021/09/04 16:22:11;;;;;;;12.55;9.07;;;;;;;21.82;66.53;101706.69;10461496;28;20049;-60
2021/09/04 16:27:14;;;;;;;11.75;9.40;;;;;;;22.10;66.74;101713.00;10461331;28;20056;-60
2021/09/04 16:32:16;;;;;;;12.77;8.70;;;;;;;22.20;69.31;101705.84;10461662;28;20107;-59
2021/09/04 16:37:19;;;;;;;10.90;8.90;;;;;;;21.95;69.25;101696.59;10460820;28;20053;-60
2021/09/04 16:42:22;;;;;;;12.52;8.93;;;;;;;21.54;70.77;101703.03;10461461;28;20049;-60
2021/09/04 16:47:25;;;;;;;13.57;9.18;;;;;;;21.45;71.13;101700.19;10460943;28;20052;-60
2021/09/04 16:52:28;;;;;;;14.32;9.63;;;;;;;21.49;71.35;101698.94;10460462;28;20137;-60
2021/09/04 16:57:30;;;;;;;13.98;9.02;;;;;;;21.00;76.50;101689.09;10460239;28;20059;-60
2021/09/04 17:02:33;;;;;;;16.67;10.65;;;;;;;20.89;71.68;101701.53;10459868;28;20052;-59
2021/09/04 17:07:35;;;;;;;13.40;9.43;;;;;;;21.11;76.27;101710.31;10460258;28;20051;-59
2021/09/04 17:12:38;;;;;;;16.67;9.85;;;;;;;20.64;77.11;101712.63;10459721;28;20048;-60
2021/09/04 17:17:40;;;;;;;15.02;9.70;;;;;;;20.41;77.25;101724.22;10459610;28;20049;-60
2021/09/04 17:22:42;;;;;;;12.35;9.85;;;;;;;20.34;75.70;101712.44;10459437;28;20045;-60
2021/09/04 17:27:45;;;;;;;14.55;11.30;;;;;;;19.87;82.95;101717.25;10458130;28;20103;-60
2021/09/04 17:32:47;;;;;;;11.73;9.73;;;;;;;19.51;83.52;101718.41;10458660;28;20535;-59
2021/09/04 17:37:50;;;;;;;14.85;10.75;;;;;;;18.88;87.63;101716.28;10458403;28;20048;-60
2021/09/04 17:42:52;;;;;;;14.30;10.25;;;;;;;18.65;87.55;101721.50;10458535;28;20052;-59
2021/09/04 17:47:56;;;;;;;20.83;13.77;;;;;;;18.57;88.89;101722.09;10458262;28;20056;-60
2021/09/04 17:52:59;;;;;;;14.23;11.48;;;;;;;18.18;92.22;101731.28;10457966;28;20416;-60
2021/09/04 17:58:02;;;;;;;9.60;8.18;;;;;;;18.18;93.91;101733.94;10458737;28;20048;-60
2021/09/04 18:03:04;;;;;;;12.25;8.77;;;;;;;17.89;95.06;101733.44;10457637;28;20128;-59
2021/09/04 18:08:07;;;;;;;18.00;10.50;;;;;;;17.68;98.81;101741.97;10457921;28;20052;-59
2021/09/04 18:13:10;;;;;;;10.02;9.02;;;;;;;17.51;99.46;101740.53;10457212;28;20056;-60
2021/09/04 18:18:12;;;;;;;12.30;9.73;;;;;;;17.33;99.59;101736.56;10457117;28;20091;-60
2021/09/04 18:23:14;;;;;;;15.38;9.50;;;;;;;17.14;99.99;101744.94;10457381;28;20049;-60
2021/09/04 18:28:17;;;;;;;14.82;10.40;;;;;;;16.83;100.00;101758.47;10456676;28;20071;-60
2021/09/04 18:33:19;;;;;;;11.52;10.00;;;;;;;16.73;100.00;101760.06;10456660;28;20569;-60
2021/09/04 18:38:23;;;;;;;12.27;9.32;;;;;;;16.71;100.00;101767.25;10455833;28;20045;-59
2021/09/04 18:43:25;;;;;;;15.05;10.27;;;;;;;16.49;100.00;101781.06;10456276;28;20493;-59
2021/09/04 18:48:28;;;;;;;14.65;11.57;;;;;;;16.34;100.00;101781.13;10456018;28;20390;-59
2021/09/04 18:53:30;;;;;;;15.25;10.95;;;;;;;16.10;100.00;101788.03;10456317;28;20397;-59
2021/09/04 18:58:33;;;;;;;14.90;11.55;;;;;;;15.98;100.00;101787.03;10456356;28;20045;-60
2021/09/04 19:03:35;;;;;;;16.13;11.73;;;;;;;16.02;100.00;101793.81;10456202;28;20049;-59
2021/09/04 19:08:39;;;;;;;21.35;11.73;;;;;;;16.01;100.00;101791.28;10456464;28;20045;-60
2021/09/04 19:13:42;;;;;;;18.90;11.85;;;;;;;15.89;100.00;101798.19;10456064;28;20045;-60
2021/09/04 19:18:44;;;;;;;14.63;10.80;;;;;;;15.70;100.00;101795.81;10455532;28;20053;-59
2021/09/04 19:23:47;;;;;;;13.98;9.95;;;;;;;15.58;100.00;101810.63;10456552;28;20052;-59
2021/09/04 19:28:50;;;;;;;15.38;10.68;;;;;;;15.51;100.00;101809.34;10455026;28;20053;-59
2021/09/04 19:33:52;;;;;;;19.13;10.88;;;;;;;15.49;100.00;101821.78;10455765;28;20049;-60
2021/09/04 19:38:54;;;;;;;14.60;10.70;;;;;;;15.39;100.00;101821.50;10455420;28;20049;-59
2021/09/04 19:43:57;;;;;;;18.92;12.95;;;;;;;15.19;100.00;101822.72;10455689;28;20044;-59
2021/09/04 19:48:59;;;;;;;21.35;14.15;;;;;;;15.14;100.00;101833.53;10456531;28;20420;-59
2021/09/04 19:54:01;;;;;;;19.98;16.42;;;;;;;15.19;100.00;101831.47;10462530;28;20497;-59
2021/09/04 19:59:04;;;;;;;20.17;13.82;;;;;;;15.14;100.00;101833.53;10462292;28;20484;-60
2021/09/04 20:04:06;;;;;;;17.73;13.15;;;;;;;15.20;100.00;101838.44;10462250;28;20500;-60
2021/09/04 20:09:09;;;;;;;18.92;13.57;;;;;;;14.93;100.00;101850.63;10461643;28;20401;-59
2021/09/04 20:14:11;;;;;;;17.00;12.73;;;;;;;14.91;100.00;101840.22;10461980;28;20059;-59
2021/09/04 20:19:13;;;;;;;18.10;14.05;;;;;;;14.81;100.00;101841.66;10461745;28;20128;-60
2021/09/04 20:24:15;;;;;;;17.70;13.10;;;;;;;14.80;100.00;101853.16;10461333;28;20052;-59
2021/09/04 20:29:19;;;;;;;19.27;13.95;;;;;;;14.65;100.00;101854.91;10461869;28;20063;-58
2021/09/04 20:34:22;;;;;;;18.33;14.50;;;;;;;14.60;100.00;101856.94;10460784;28;20519;-59
2021/09/04 20:39:26;;;;;;;17.92;13.40;;;;;;;14.60;100.00;101856.94;10460808;28;20060;-59
2021/09/04 20:44:29;;;;;;;21.92;14.90;;;;;;;14.50;100.00;101867.97;10460525;28;20080;-59
2021/09/04 20:49:32;;;;;;;16.45;13.77;;;;;;;14.56;100.00;101863.28;10460624;28;20041;-59
2021/09/04 20:54:35;;;;;;;20.17;15.00;;;;;;;14.44;100.00;101868.34;10459083;28;20052;-59
2021/09/04 20:59:37;;;;;;;21.02;16.05;;;;;;;14.47;100.00;101870.81;10460066;28;20049;-59
2021/09/04 21:04:39;;;;;;;20.67;13.27;;;;;;;14.44;100.00;101865.72;10459403;28;20045;-59
2021/09/04 21:09:42;;;;;;;24.45;14.65;;;;;;;14.36;100.00;101861.81;10459775;28;20052;-59
2021/09/04 21:14:44;;;;;;;22.02;15.05;;;;;;;14.28;100.00;101872.75;10459623;28;20049;-59
2021/09/04 21:19:46;;;;;;;20.25;14.07;;;;;;;14.24;100.00;101866.81;10459125;28;20047;-59
2021/09/04 21:24:49;;;;;;;29.40;15.98;;;;;;;14.06;100.00;101873.94;10458942;28;20052;-59
2021/09/04 21:29:51;;;;;;;22.52;15.82;;;;;;;14.05;100.00;101869.59;10459409;28;20052;-59
2021/09/04 21:34:54;;;;;;;23.13;16.67;;;;;;;14.01;100.00;101869.88;10459515;28;20055;-59
2021/09/04 21:39:56;;;;;;;24.60;16.35;;;;;;;14.13;100.00;101872.66;10458376;28;20056;-59
2021/09/04 21:44:58;;;;;;;19.77;15.73;;;;;;;13.92;100.00;101865.97;10458716;28;20049;-60
2021/09/04 21:50:02;;;;;;;21.77;16.33;;;;;;;13.91;100.00;101867.75;10458182;28;20044;-59
2021/09/04 21:55:05;;;;;;;19.13;14.48;;;;;;;14.00;100.00;101879.53;10457159;28;20048;-58
2021/09/04 22:00:18;;;;;;;21.15;16.48;;;;;;;13.88;100.00;101881.06;10456691;28;20048;-60
2021/09/04 22:05:20;;;;;;;23.50;16.35;;;;;;;13.79;100.00;101878.94;10457854;28;20049;-59
2021/09/04 22:10:23;;;;;;;25.35;16.90;;;;;;;13.73;100.00;101888.03;10457455;28;20044;-59
2021/09/04 22:15:25;;;;;;;24.13;16.42;;;;;;;13.67;100.00;101884.88;10457282;28;20048;-58
2021/09/04 22:20:30;;;;;;;24.67;16.25;;;;;;;13.67;100.00;101888.34;10456968;28;20056;-58
2021/09/04 22:25:33;;;;;;;26.73;17.55;;;;;;;13.67;100.00;101890.13;10456735;28;20057;-59
2021/09/04 22:30:36;;;;;;;19.77;14.85;;;;;;;13.54;100.00;101888.13;10457639;28;20083;-59
2021/09/04 22:35:38;;;;;;;24.48;14.70;;;;;;;13.54;100.00;101892.56;10456607;28;20407;-59